McGehee, Arkansas
Current Conditions -  °F | °C
As of 2:53 AM on Wednesday 28 Jan 2015 (Local Time) from KLLQ Reporting Station
Clear Clear  
Wind Chill: 39°   Ceiling: Unl
Heat Index: 42°   Visibility: 10mi
Dew Point: 36°   Wind: 5mph
Humidity: 79%   Direction: 110°ESE
Pressure: 30.19"   Gusts: NA
Location:  33.63°N, 91.39°W
Report Text: KLLQ 280853Z AUTO 11004KT 10SM CLR 06/02 A3019 RMK AO2 SLP223 T00560022 53001
Loading
Personal Weather Stations






























Interactive Weather Map New forecast layout! Learn more

10-Day Weather Forecast

Advertisements
Track Severe Weather on mobile